This is the latest recevied weather packets stored in our database for station/object DL9GJ-6. If no packets are shown the sender has not sent any weather packets the latest 10 day(s).
| Time | Temp. | Humidity | Pressure | Rain* | Wind** | Luminosity | Snow |
|---|---|---|---|---|---|---|---|
| 1777756810 | 11.11° C | 73% | 1016.1 hPa | 0 mm | - | 0 W/m² | - |
| 1777754370 | 12.22° C | 69% | 1016.3 hPa | 0 mm | - | 0 W/m² | - |
| 1777753929 | 12.22° C | 68% | 1016.3 hPa | 0 mm | - | 0 W/m² | - |
| 1777753569 | 12.22° C | 68% | 1016.4 hPa | 0 mm | - | 0 W/m² | - |
| 1777752930 | 12.78° C | 67% | 1016.4 hPa | 0 mm | - | 0 W/m² | - |
| 1777752569 | 13.33° C | 65% | 1016.5 hPa | 0 mm | - | 0 W/m² | - |
| 1777751850 | 13.89° C | 62% | 1016.5 hPa | 0 mm | - | 0 W/m² | - |
| 1777751490 | 14.44° C | 60% | 1016.5 hPa | 0 mm | - | 0 W/m² | - |
| 1777751130 | 14.44° C | 58% | 1016.5 hPa | 0 mm | - | 0 W/m² | - |
| 1777750329 | 15.56° C | 54% | 1016.4 hPa | 0 mm | - | 0 W/m² | - |
| 1777749329 | 17.22° C | 50% | 1016.4 hPa | 0 mm | - | 0 W/m² | - |
| 1777748969 | 17.78° C | 47% | 1016.4 hPa | 0 mm | - | 0 W/m² | - |
| 1777748170 | 18.33° C | 45% | 1016.4 hPa | 0 mm | - | 0 W/m² | - |
| 1777747530 | 18.89° C | 45% | 1016.2 hPa | 0 mm | - | 0 W/m² | - |
| 1777747169 | 20° C | 43% | 1016.1 hPa | 0 mm | - | 0 W/m² | - |
| 1777746012 | 21.11° C | 39% | 1016.1 hPa | 0 mm | - | 8 W/m² | - |
| 1777745730 | 21.67° C | 38% | 1016 hPa | 0 mm | - | 11 W/m² | - |
| 1777745650 | 22.22° C | 36% | 1016.1 hPa | 0 mm | - | 13 W/m² | - |
| 1777745371 | 22.22° C | 35% | 1016 hPa | 0 mm | - | 17 W/m² | - |
| 1777745010 | 22.22° C | 34% | 1016.1 hPa | 0 mm | - | 20 W/m² | - |
| 1777744208 | 22.78° C | 33% | 1016 hPa | 0 mm | - | 25 W/m² | - |
| 1777739169 | 23.33° C | 32% | 1016.6 hPa | 0 mm | - | 87 W/m² | - |
| 1777738811 | 23.33° C | 32% | 1016.7 hPa | 0 mm | - | 84 W/m² | - |
| 1777738090 | 23.89° C | 31% | 1016.8 hPa | 0 mm | - | 92 W/m² | - |
| 1777737369 | 23.89° C | 29% | 1016.9 hPa | 0 mm | - | 106 W/m² | - |
* Rain latest hour (hover to see other rain measurements)
** Current wind speed in m/s (hover to see current wind gust speed)